Time;durP1;ratioP1;P1;durP2;ratioP2;P2;SDS_P1;SDS_P2;PMS_P1;PMS_P2;Temp;Humidity;BMP_temperature;BMP_pressure;BME280_temperature;BME280_humidity;BME280_pressure;Samples;Min_cycle;Max_cycle;Signal;HPM_P1;HPM_P2
2022/01/28 00:02:09;;;;;;;;;;;4.20;87.30;;;;;;5071971;28;19916;-86
2022/01/28 00:04:35;;;;;;;;;;;4.30;87.00;;;;;;5072877;28;19965;-86
2022/01/28 00:07:00;;;;;;;;;;;4.40;86.60;;;;;;5072254;28;20002;-86
2022/01/28 00:09:26;;;;;;;;;;;4.40;86.50;;;;;;5072326;28;19997;-86
2022/01/28 00:11:52;;;;;;;;;;;4.40;86.50;;;;;;5075602;28;19955;-86
2022/01/28 00:14:32;;;;;;;;;;;4.50;86.50;;;;;;5075935;28;19909;-86
2022/01/28 00:38:10;;;;;;;;;;;4.30;87.00;;;;;;5075620;28;20328;-86
2022/01/28 00:40:36;;;;;;;;;;;4.30;87.40;;;;;;5075843;28;20320;-86
2022/01/28 00:43:02;;;;;;;;;;;4.20;87.50;;;;;;5075347;28;19919;-86
2022/01/28 00:45:28;;;;;;;;;;;4.10;87.50;;;;;;5075670;28;19913;-86
2022/01/28 00:47:53;;;;;;;;;;;4.30;87.60;;;;;;5075845;28;19923;-86
2022/01/28 00:50:19;;;;;;;;;;;4.20;87.20;;;;;;5075650;28;19913;-86
2022/01/28 00:52:45;;;;;;;;;;;4.30;87.10;;;;;;5075647;28;19912;-86
2022/01/28 00:55:10;;;;;;;;;;;4.20;87.30;;;;;;5075594;28;19908;-86
2022/01/28 00:57:36;;;;;;;;;;;4.20;87.60;;;;;;5074010;28;19912;-86
2022/01/28 01:00:03;;;;;;;;;;;4.20;87.60;;;;;;5075482;28;19909;-86
2022/01/28 01:02:29;;;;;;;;;;;4.10;87.50;;;;;;5075072;28;20011;-86
2022/01/28 01:04:55;;;;;;;;;;;4.10;87.50;;;;;;5075643;28;20429;-86
2022/01/28 01:07:20;;;;;;;;;;;4.10;87.70;;;;;;5075075;28;19913;-86
2022/01/28 01:09:48;;;;;;;;;;;4.20;87.90;;;;;;5075478;28;20345;-86
2022/01/28 01:12:17;;;;;;;;;;;4.30;88.00;;;;;;5074998;28;19918;-86
2022/01/28 01:14:43;;;;;;;;;;;4.50;87.70;;;;;;5075227;28;19915;-86
2022/01/28 01:19:54;;;;;;;;;;;4.80;86.60;;;;;;5075134;28;19935;-86
2022/01/28 01:22:20;;;;;;;;;;;4.90;86.20;;;;;;5074919;28;19952;-86
2022/01/28 01:24:51;;;;;;;;;;;4.90;85.60;;;;;;5074832;28;20356;-86
2022/01/28 01:27:18;;;;;;;;;;;4.80;85.30;;;;;;5074651;28;20247;-86
2022/01/28 01:29:45;;;;;;;;;;;4.70;85.50;;;;;;5074897;28;20273;-86
2022/01/28 01:32:15;;;;;;;;;;;4.60;85.80;;;;;;5074495;28;19931;-86
2022/01/28 01:34:40;;;;;;;;;;;4.50;86.20;;;;;;5074805;28;20285;-86
2022/01/28 01:37:07;;;;;;;;;;;4.40;86.20;;;;;;5074686;28;19908;-86
2022/01/28 01:39:35;;;;;;;;;;;4.40;86.50;;;;;;5074712;28;19912;-86
2022/01/28 01:42:29;;;;;;;;;;;4.30;86.80;;;;;;5074900;28;19956;-86
2022/01/28 01:52:54;;;;;;;;;;;4.30;87.50;;;;;;5074321;28;19932;-86
2022/01/28 01:55:19;;;;;;;;;;;4.30;87.90;;;;;;5074383;28;20362;-87
2022/01/28 01:57:45;;;;;;;;;;;4.30;87.90;;;;;;5073991;28;19915;-86
2022/01/28 02:00:11;;;;;;;;;;;4.40;88.00;;;;;;5074259;28;19913;-86
2022/01/28 02:02:37;;;;;;;;;;;4.40;88.10;;;;;;5073789;28;20324;-86
2022/01/28 02:05:03;;;;;;;;;;;4.40;87.90;;;;;;5074097;28;20019;-86
2022/01/28 02:07:29;;;;;;;;;;;4.50;87.80;;;;;;5073849;28;19931;-86
2022/01/28 02:09:55;;;;;;;;;;;4.40;87.60;;;;;;5074054;28;20270;-86
2022/01/28 02:12:20;;;;;;;;;;;4.30;87.60;;;;;;5073792;28;19908;-86
2022/01/28 02:14:46;;;;;;;;;;;4.20;87.90;;;;;;5074026;28;19923;-86
2022/01/28 02:17:12;;;;;;;;;;;4.20;88.30;;;;;;5073498;28;19909;-86
2022/01/28 02:19:39;;;;;;;;;;;4.20;88.30;;;;;;5072457;28;19912;-86
2022/01/28 02:22:05;;;;;;;;;;;4.10;88.60;;;;;;5072830;28;19908;-86
2022/01/28 02:24:38;;;;;;;;;;;4.20;88.70;;;;;;5073623;28;19924;-86
2022/01/28 02:27:04;;;;;;;;;;;4.20;88.70;;;;;;5073747;28;19908;-86
2022/01/28 02:29:32;;;;;;;;;;;4.20;88.60;;;;;;5073651;28;19925;-86
2022/01/28 02:32:00;;;;;;;;;;;4.30;88.50;;;;;;5073361;28;19912;-86
2022/01/28 02:34:25;;;;;;;;;;;4.20;88.30;;;;;;5072936;28;20316;-86
2022/01/28 02:36:51;;;;;;;;;;;4.20;88.40;;;;;;5073586;28;19909;-86
2022/01/28 02:39:16;;;;;;;;;;;4.30;88.40;;;;;;5072132;28;19916;-86
2022/01/28 02:41:46;;;;;;;;;;;4.30;87.90;;;;;;5073591;28;19959;-86
2022/01/28 02:46:41;;;;;;;;;;;4.20;87.90;;;;;;5073325;28;19909;-86
2022/01/28 02:49:10;;;;;;;;;;;4.20;88.00;;;;;;5053456;28;19909;-86
2022/01/28 02:51:36;;;;;;;;;;;4.10;88.00;;;;;;5053436;28;19909;-86
2022/01/28 02:54:12;;;;;;;;;;;4.10;88.10;;;;;;5053319;28;19909;-86
2022/01/28 02:56:40;;;;;;;;;;;4.00;88.00;;;;;;5053438;28;19916;-86
2022/01/28 02:59:06;;;;;;;;;;;3.90;88.00;;;;;;5053286;28;19909;-86
2022/01/28 03:01:31;;;;;;;;;;;3.90;88.20;;;;;;5053228;28;19959;-86
2022/01/28 03:03:59;;;;;;;;;;;3.90;88.40;;;;;;5070710;28;19970;-86
2022/01/28 03:06:25;;;;;;;;;;;3.90;88.80;;;;;;5073251;28;19913;-86
2022/01/28 03:09:12;;;;;;;;;;;4.00;88.90;;;;;;5072862;28;19965;-86
2022/01/28 03:19:41;;;;;;;;;;;4.40;87.70;;;;;;5053327;28;19916;-86
2022/01/28 03:22:07;;;;;;;;;;;4.40;87.20;;;;;;5052959;28;19913;-86
2022/01/28 03:24:32;;;;;;;;;;;4.40;87.20;;;;;;5073112;22;19925;-86
2022/01/28 03:27:04;;;;;;;;;;;4.40;87.20;;;;;;5072650;28;19912;-86
2022/01/28 03:29:30;;;;;;;;;;;4.40;87.10;;;;;;5054909;28;19966;-86
2022/01/28 03:31:55;;;;;;;;;;;4.40;87.10;;;;;;5072747;28;19909;-86
2022/01/28 03:34:21;;;;;;;;;;;4.30;87.10;;;;;;5073302;28;19912;-86
2022/01/28 03:36:47;;;;;;;;;;;4.20;87.40;;;;;;5072606;28;20378;-86
2022/01/28 03:39:13;;;;;;;;;;;4.10;87.50;;;;;;5072575;28;19908;-86
2022/01/28 03:41:38;;;;;;;;;;;4.10;87.50;;;;;;5052798;28;19909;-86
2022/01/28 03:44:04;;;;;;;;;;;4.00;87.90;;;;;;5052702;28;20337;-86
2022/01/28 03:46:30;;;;;;;;;;;4.00;88.00;;;;;;5056848;28;20325;-86
2022/01/28 03:48:56;;;;;;;;;;;4.00;88.20;;;;;;5076203;28;19918;-86
2022/01/28 03:51:22;;;;;;;;;;;4.00;88.20;;;;;;5076788;28;20011;-86
2022/01/28 03:53:48;;;;;;;;;;;3.90;88.00;;;;;;5076726;28;19965;-86
2022/01/28 03:56:13;;;;;;;;;;;3.90;88.00;;;;;;5076694;28;19909;-86
2022/01/28 03:58:39;;;;;;;;;;;3.90;87.80;;;;;;5076380;28;19920;-86
2022/01/28 04:01:11;;;;;;;;;;;3.90;87.90;;;;;;5076568;28;19916;-86
2022/01/28 04:03:42;;;;;;;;;;;3.90;87.70;;;;;;5076209;28;19912;-86
2022/01/28 04:11:38;;;;;;;;;;;4.00;87.40;;;;;;5056439;28;20107;-86
2022/01/28 04:14:12;;;;;;;;;;;4.00;87.30;;;;;;5056401;28;19916;-86
2022/01/28 04:19:21;;;;;;;;;;;4.00;87.40;;;;;;5076605;28;19908;-86
2022/01/28 04:21:47;;;;;;;;;;;4.10;86.90;;;;;;5076306;28;19908;-85
2022/01/28 04:24:13;;;;;;;;;;;4.00;87.00;;;;;;5076086;28;19967;-86
2022/01/28 04:26:38;;;;;;;;;;;4.10;87.10;;;;;;5075437;28;20362;-86
2022/01/28 04:29:04;;;;;;;;;;;4.00;86.90;;;;;;5075960;28;19909;-86
2022/01/28 04:31:30;;;;;;;;;;;3.90;87.10;;;;;;5076052;28;19966;-86
2022/01/28 04:33:56;;;;;;;;;;;4.00;87.30;;;;;;5075687;28;19978;-86
2022/01/28 04:36:25;;;;;;;;;;;4.00;87.40;;;;;;5076011;28;19940;-86
2022/01/28 04:38:59;;;;;;;;;;;4.00;87.20;;;;;;5075836;28;19924;-87
2022/01/28 04:41:34;;;;;;;;;;;3.90;87.30;;;;;;5075881;28;19915;-86
2022/01/28 04:44:09;;;;;;;;;;;4.00;87.30;;;;;;5075762;28;19912;-86
2022/01/28 04:46:45;;;;;;;;;;;4.00;87.10;;;;;;5075228;28;19919;-87
2022/01/28 04:49:20;;;;;;;;;;;4.10;87.10;;;;;;5075902;28;19919;-87
2022/01/28 04:57:20;;;;;;;;;;;4.20;87.00;;;;;;5075097;28;19912;-86
2022/01/28 04:59:56;;;;;;;;;;;4.40;86.40;;;;;;5075295;28;19908;-86
2022/01/28 05:02:45;;;;;;;;;;;4.20;86.20;;;;;;5074912;28;19950;-86
2022/01/28 05:05:38;;;;;;;;;;;4.20;86.40;;;;;;5074852;28;19967;-86
2022/01/28 05:27:02;;;;;;;;;;;4.40;85.00;;;;;;5075319;28;19958;-86
2022/01/28 05:29:28;;;;;;;;;;;4.40;84.20;;;;;;5074856;28;19909;-86
2022/01/28 05:31:54;;;;;;;;;;;4.40;83.50;;;;;;5074555;28;20393;-86
2022/01/28 05:34:23;;;;;;;;;;;4.50;83.50;;;;;;5074846;28;19916;-86
2022/01/28 05:36:49;;;;;;;;;;;4.40;83.00;;;;;;5075047;28;19908;-86
2022/01/28 05:39:15;;;;;;;;;;;4.30;82.80;;;;;;5074750;28;20372;-86
2022/01/28 05:41:40;;;;;;;;;;;4.20;83.10;;;;;;5074401;28;20399;-86
2022/01/28 05:44:06;;;;;;;;;;;4.20;83.50;;;;;;5073997;28;20385;-86
2022/01/28 05:46:32;;;;;;;;;;;4.10;83.70;;;;;;5073891;28;19936;-86
2022/01/28 05:48:58;;;;;;;;;;;4.20;83.70;;;;;;5074580;28;20305;-86
2022/01/28 05:51:24;;;;;;;;;;;4.10;84.00;;;;;;5074494;28;19988;-86
2022/01/28 05:53:49;;;;;;;;;;;4.10;84.30;;;;;;5073485;28;19912;-86
2022/01/28 05:56:15;;;;;;;;;;;4.10;84.20;;;;;;5072565;28;19912;-86
2022/01/28 05:59:09;;;;;;;;;;;4.00;84.30;;;;;;5108256;27;19922;-86
2022/01/28 06:01:34;;;;;;;;;;;4.00;84.50;;;;;;5090088;28;19991;-86
2022/01/28 06:04:00;;;;;;;;;;;4.00;84.40;;;;;;5089304;28;19912;-86
2022/01/28 06:06:25;;;;;;;;;;;4.00;84.50;;;;;;5089414;28;19970;-86
2022/01/28 06:08:52;;;;;;;;;;;4.00;84.60;;;;;;5090362;28;20438;-86
2022/01/28 06:11:18;;;;;;;;;;;4.00;84.80;;;;;;5090385;28;19908;-86
2022/01/28 06:13:44;;;;;;;;;;;3.90;85.00;;;;;;5089634;28;20011;-87
2022/01/28 06:16:11;;;;;;;;;;;4.00;85.20;;;;;;5090176;28;19948;-87
2022/01/28 06:18:36;;;;;;;;;;;4.00;84.90;;;;;;5088968;28;19927;-86
2022/01/28 06:21:03;;;;;;;;;;;4.10;84.50;;;;;;5090268;28;20273;-86
2022/01/28 06:23:28;;;;;;;;;;;4.20;84.30;;;;;;5089912;28;19955;-86
2022/01/28 06:25:54;;;;;;;;;;;4.20;83.70;;;;;;5089165;28;19951;-86
2022/01/28 06:28:19;;;;;;;;;;;4.10;83.70;;;;;;5089045;28;20362;-86
2022/01/28 06:30:45;;;;;;;;;;;4.00;83.80;;;;;;5087899;28;20627;-86
2022/01/28 06:33:11;;;;;;;;;;;3.90;84.10;;;;;;5084091;28;20357;-86
2022/01/28 06:35:36;;;;;;;;;;;3.80;84.50;;;;;;5089831;28;20408;-86
2022/01/28 06:38:02;;;;;;;;;;;3.70;84.80;;;;;;5088563;28;19971;-86
2022/01/28 06:40:28;;;;;;;;;;;3.70;84.80;;;;;;5085555;28;19920;-86
2022/01/28 06:42:53;;;;;;;;;;;3.60;85.00;;;;;;5086586;28;19920;-86
2022/01/28 06:45:19;;;;;;;;;;;3.60;84.90;;;;;;5092990;28;19912;-86
2022/01/28 06:47:44;;;;;;;;;;;3.60;85.10;;;;;;5088011;28;19921;-86
2022/01/28 06:50:10;;;;;;;;;;;3.70;85.00;;;;;;5084967;28;19916;-86
2022/01/28 06:52:36;;;;;;;;;;;3.70;84.90;;;;;;5086138;28;20461;-86
2022/01/28 06:55:02;;;;;;;;;;;3.70;84.90;;;;;;5083653;28;20344;-86
2022/01/28 06:57:29;;;;;;;;;;;3.70;84.70;;;;;;5082886;28;20566;-86
2022/01/28 06:59:54;;;;;;;;;;;3.80;84.30;;;;;;5083753;28;19916;-86
2022/01/28 07:02:20;;;;;;;;;;;3.80;84.20;;;;;;5083993;28;19923;-86
2022/01/28 07:04:45;;;;;;;;;;;3.90;84.00;;;;;;5080786;28;20970;-86
2022/01/28 07:07:11;;;;;;;;;;;3.90;83.70;;;;;;5082724;28;19956;-86
2022/01/28 07:09:37;;;;;;;;;;;3.90;83.60;;;;;;5077854;28;20538;-86
2022/01/28 07:12:03;;;;;;;;;;;3.90;83.40;;;;;;5072187;28;19928;-86
2022/01/28 07:14:28;;;;;;;;;;;3.70;83.70;;;;;;5072268;28;19912;-86
2022/01/28 07:16:54;;;;;;;;;;;3.60;84.10;;;;;;5073501;28;19919;-86
2022/01/28 07:19:19;;;;;;;;;;;3.50;84.50;;;;;;5072384;28;19942;-86
2022/01/28 07:21:45;;;;;;;;;;;3.50;84.80;;;;;;5073088;28;19920;-86
2022/01/28 07:24:10;;;;;;;;;;;3.50;84.70;;;;;;5072295;28;19912;-86
2022/01/28 07:26:36;;;;;;;;;;;3.50;84.90;;;;;;5071166;28;20400;-86
2022/01/28 07:29:02;;;;;;;;;;;3.60;84.90;;;;;;5071890;28;19920;-86
2022/01/28 07:31:27;;;;;;;;;;;3.50;85.10;;;;;;5066884;28;19921;-86
2022/01/28 07:33:53;;;;;;;;;;;3.50;85.20;;;;;;5078300;28;20003;-86
2022/01/28 07:36:19;;;;;;;;;;;3.60;85.10;;;;;;5074998;28;19963;-86
2022/01/28 07:38:44;;;;;;;;;;;3.70;84.50;;;;;;5072574;28;19925;-86
2022/01/28 07:41:10;;;;;;;;;;;3.90;84.30;;;;;;5072103;28;19916;-86
2022/01/28 07:43:38;;;;;;;;;;;3.90;84.20;;;;;;5071165;28;19931;-86
2022/01/28 07:46:04;;;;;;;;;;;4.00;83.70;;;;;;5080258;28;19944;-86
2022/01/28 07:48:30;;;;;;;;;;;4.10;83.30;;;;;;5072844;28;19952;-86
2022/01/28 07:50:55;;;;;;;;;;;4.00;83.20;;;;;;5069206;28;19944;-86
2022/01/28 07:53:21;;;;;;;;;;;4.00;83.20;;;;;;5069150;28;19921;-86
2022/01/28 07:55:47;;;;;;;;;;;3.90;83.70;;;;;;5072628;28;19921;-86
2022/01/28 07:58:13;;;;;;;;;;;3.90;83.80;;;;;;5071409;28;19976;-86
2022/01/28 08:00:38;;;;;;;;;;;3.90;83.80;;;;;;5072466;28;19920;-86
2022/01/28 08:03:04;;;;;;;;;;;3.90;84.10;;;;;;5092612;28;19953;-86
2022/01/28 08:05:29;;;;;;;;;;;4.00;84.10;;;;;;5072089;28;20362;-86
2022/01/28 08:07:55;;;;;;;;;;;4.00;83.50;;;;;;5074951;28;19919;-85
2022/01/28 08:10:21;;;;;;;;;;;4.10;83.40;;;;;;5069513;28;19913;-86
2022/01/28 08:12:47;;;;;;;;;;;4.10;83.20;;;;;;5068902;28;20331;-86
2022/01/28 08:15:13;;;;;;;;;;;4.10;84.20;;;;;;5070771;28;19912;-86
2022/01/28 08:17:39;;;;;;;;;;;4.20;84.00;;;;;;5069906;28;19950;-86
2022/01/28 08:20:05;;;;;;;;;;;4.30;83.50;;;;;;5070682;28;19916;-86
2022/01/28 08:22:30;;;;;;;;;;;4.40;83.00;;;;;;5070205;28;19977;-87
2022/01/28 08:24:56;;;;;;;;;;;4.40;82.60;;;;;;5068871;28;19913;-86
2022/01/28 08:27:21;;;;;;;;;;;4.40;82.60;;;;;;5072740;28;19978;-86
2022/01/28 08:29:47;;;;;;;;;;;4.40;82.80;;;;;;5074411;28;19920;-86
2022/01/28 08:32:12;;;;;;;;;;;4.60;82.40;;;;;;5064430;28;19913;-86
2022/01/28 08:34:38;;;;;;;;;;;4.50;82.40;;;;;;5071493;28;19917;-86
2022/01/28 08:37:04;;;;;;;;;;;4.40;82.70;;;;;;5065495;28;19934;-86
2022/01/28 08:39:34;;;;;;;;;;;4.30;82.40;;;;;;5071305;28;19913;-86
2022/01/28 08:42:00;;;;;;;;;;;4.30;82.40;;;;;;5073643;28;20003;-86
2022/01/28 08:44:27;;;;;;;;;;;4.20;82.50;;;;;;5071062;28;20062;-86
2022/01/28 08:46:52;;;;;;;;;;;4.30;82.70;;;;;;5071377;28;19913;-86
2022/01/28 08:49:18;;;;;;;;;;;4.20;82.30;;;;;;5070491;28;19919;-86
2022/01/28 08:51:44;;;;;;;;;;;4.30;81.80;;;;;;5063902;28;20420;-86
2022/01/28 08:54:10;;;;;;;;;;;4.40;81.80;;;;;;5063642;28;19920;-86
2022/01/28 08:56:35;;;;;;;;;;;4.50;82.00;;;;;;5066216;28;19963;-87
2022/01/28 08:59:01;;;;;;;;;;;4.70;81.60;;;;;;5069269;28;20097;-86
2022/01/28 09:01:28;;;;;;;;;;;4.90;80.80;;;;;;5069955;28;19920;-86
2022/01/28 09:03:54;;;;;;;;;;;5.00;80.60;;;;;;5068969;28;19912;-86
2022/01/28 09:06:19;;;;;;;;;;;5.10;80.40;;;;;;5066579;28;19920;-87
2022/01/28 09:08:47;;;;;;;;;;;5.20;80.30;;;;;;5068905;28;19912;-87
2022/01/28 09:11:32;;;;;;;;;;;5.30;79.70;;;;;;5071419;28;19919;-87
2022/01/28 09:13:57;;;;;;;;;;;5.30;79.90;;;;;;5066225;28;20003;-87
2022/01/28 09:16:23;;;;;;;;;;;5.30;79.20;;;;;;5066299;28;20019;-86
2022/01/28 09:18:49;;;;;;;;;;;5.40;78.60;;;;;;5069519;28;19920;-86
2022/01/28 09:21:14;;;;;;;;;;;5.20;78.60;;;;;;5069942;28;19912;-86
2022/01/28 09:23:40;;;;;;;;;;;5.20;79.00;;;;;;5068452;28;19942;-86
2022/01/28 09:26:06;;;;;;;;;;;5.40;79.40;;;;;;5071066;28;19912;-86
2022/01/28 09:28:32;;;;;;;;;;;5.40;79.60;;;;;;5070291;28;19919;-86
2022/01/28 09:30:57;;;;;;;;;;;5.40;79.30;;;;;;5072710;28;19913;-87
2022/01/28 09:33:23;;;;;;;;;;;5.40;78.90;;;;;;5070622;28;20007;-86
2022/01/28 09:35:49;;;;;;;;;;;5.50;79.30;;;;;;5069749;28;20614;-86
2022/01/28 09:38:14;;;;;;;;;;;5.60;79.30;;;;;;5071265;28;20382;-86
2022/01/28 09:40:40;;;;;;;;;;;5.80;79.30;;;;;;5074744;28;19920;-87
2022/01/28 09:43:07;;;;;;;;;;;5.90;79.20;;;;;;5067560;28;19999;-86
2022/01/28 09:45:33;;;;;;;;;;;6.00;77.60;;;;;;5074564;28;19919;-86
2022/01/28 09:47:59;;;;;;;;;;;6.00;77.60;;;;;;5067523;28;19912;-87
2022/01/28 09:50:26;;;;;;;;;;;6.10;77.80;;;;;;5067693;28;20007;-87
2022/01/28 09:52:55;;;;;;;;;;;6.30;77.90;;;;;;5068858;28;19912;-87
2022/01/28 09:55:21;;;;;;;;;;;6.40;76.50;;;;;;5067913;28;20054;-87
2022/01/28 09:58:05;;;;;;;;;;;6.30;77.30;;;;;;5069283;28;20007;-87
2022/01/28 10:00:31;;;;;;;;;;;6.30;77.10;;;;;;5068370;28;19916;-87
2022/01/28 10:03:03;;;;;;;;;;;6.30;77.60;;;;;;5069588;28;19928;-87
2022/01/28 10:05:28;;;;;;;;;;;6.30;77.80;;;;;;5072885;28;19927;-86
2022/01/28 10:08:03;;;;;;;;;;;6.20;77.10;;;;;;5059923;28;19920;-86
2022/01/28 10:10:47;;;;;;;;;;;6.20;78.00;;;;;;5066151;28;19913;-86
2022/01/28 10:13:38;;;;;;;;;;;6.20;77.20;;;;;;5070771;28;19913;-86
2022/01/28 10:16:07;;;;;;;;;;;6.10;77.30;;;;;;5086239;28;19920;-86
2022/01/28 10:18:52;;;;;;;;;;;6.10;76.40;;;;;;5070703;28;19979;-86
2022/01/28 10:21:26;;;;;;;;;;;6.20;76.60;;;;;;5075286;28;20340;-86
2022/01/28 10:23:55;;;;;;;;;;;6.20;76.70;;;;;;5070946;28;19926;-87
2022/01/28 10:26:47;;;;;;;;;;;6.40;77.40;;;;;;5067359;28;19920;-87
2022/01/28 10:29:14;;;;;;;;;;;6.50;75.50;;;;;;5074965;28;20003;-87
2022/01/28 10:31:42;;;;;;;;;;;6.60;75.80;;;;;;5071599;28;19966;-87
2022/01/28 10:34:11;;;;;;;;;;;6.70;75.40;;;;;;5070473;28;19912;-86
2022/01/28 10:36:37;;;;;;;;;;;6.60;74.80;;;;;;5069952;28;20003;-86
2022/01/28 10:39:03;;;;;;;;;;;6.70;74.80;;;;;;5067782;28;20007;-87
2022/01/28 10:41:29;;;;;;;;;;;6.80;75.40;;;;;;5068113;28;20023;-86
2022/01/28 10:43:55;;;;;;;;;;;6.90;74.40;;;;;;5069706;28;20512;-86
2022/01/28 10:46:22;;;;;;;;;;;6.90;74.90;;;;;;5071606;28;19920;-86
2022/01/28 10:48:58;;;;;;;;;;;6.80;75.20;;;;;;5073415;28;19967;-87
2022/01/28 10:51:36;;;;;;;;;;;6.90;75.20;;;;;;5070559;28;19990;-86
2022/01/28 10:54:03;;;;;;;;;;;7.10;75.20;;;;;;5074185;28;19920;-86
2022/01/28 10:56:29;;;;;;;;;;;7.40;74.50;;;;;;5074541;28;19936;-87
2022/01/28 10:58:55;;;;;;;;;;;7.50;72.80;;;;;;5071801;28;19968;-87
2022/01/28 11:01:22;;;;;;;;;;;7.70;73.30;;;;;;5069579;28;19924;-87
2022/01/28 11:03:48;;;;;;;;;;;7.90;74.60;;;;;;5072397;28;19948;-87
2022/01/28 11:06:13;;;;;;;;;;;8.10;72.90;;;;;;5074850;28;19959;-87
2022/01/28 11:08:40;;;;;;;;;;;8.00;71.50;;;;;;5077710;28;20284;-87
2022/01/28 11:11:05;;;;;;;;;;;8.10;72.10;;;;;;5086654;28;19912;-87
2022/01/28 11:13:31;;;;;;;;;;;8.30;71.60;;;;;;5096002;28;19912;-87
2022/01/28 11:15:57;;;;;;;;;;;8.10;71.20;;;;;;5083864;28;20468;-86
2022/01/28 11:18:23;;;;;;;;;;;7.80;71.70;;;;;;5096053;28;19974;-87
2022/01/28 11:20:50;;;;;;;;;;;7.70;74.10;;;;;;5095841;28;20370;-86
2022/01/28 11:23:35;;;;;;;;;;;7.70;73.10;;;;;;5095894;28;20430;-86
2022/01/28 11:26:04;;;;;;;;;;;7.70;72.60;;;;;;5078183;28;19978;-86
2022/01/28 11:28:39;;;;;;;;;;;7.80;74.40;;;;;;5074678;28;20381;-87
2022/01/28 11:31:05;;;;;;;;;;;7.90;73.20;;;;;;5075289;28;19935;-86
2022/01/28 11:33:47;;;;;;;;;;;7.80;72.20;;;;;;5075308;28;20377;-86
2022/01/28 11:36:13;;;;;;;;;;;7.90;73.40;;;;;;5078211;28;19913;-86
2022/01/28 11:38:43;;;;;;;;;;;8.20;71.00;;;;;;5075163;28;19913;-86
2022/01/28 11:41:10;;;;;;;;;;;8.30;70.50;;;;;;5075269;28;19908;-87
2022/01/28 11:43:47;;;;;;;;;;;8.40;70.70;;;;;;5073994;28;20259;-87
2022/01/28 11:46:36;;;;;;;;;;;8.60;70.30;;;;;;5074637;28;19912;-87
2022/01/28 11:49:02;;;;;;;;;;;8.50;71.10;;;;;;5075181;28;19913;-87
2022/01/28 11:51:38;;;;;;;;;;;8.60;70.50;;;;;;5075311;28;19909;-87
2022/01/28 11:54:06;;;;;;;;;;;8.90;69.90;;;;;;5075106;28;19917;-87
2022/01/28 11:56:32;;;;;;;;;;;9.10;68.10;;;;;;5073370;28;19916;-87
2022/01/28 11:59:05;;;;;;;;;;;8.90;70.50;;;;;;5074693;28;19932;-87
2022/01/28 12:01:40;;;;;;;;;;;9.20;69.30;;;;;;5074187;28;19951;-87
2022/01/28 12:04:24;;;;;;;;;;;9.50;67.70;;;;;;5074893;28;19917;-87
2022/01/28 12:07:01;;;;;;;;;;;9.50;66.80;;;;;;5073560;28;20281;-87
2022/01/28 12:09:28;;;;;;;;;;;9.90;66.00;;;;;;5074606;28;19908;-86
2022/01/28 12:11:54;;;;;;;;;;;10.40;64.30;;;;;;5074110;28;19944;-87
2022/01/28 12:14:39;;;;;;;;;;;10.50;64.80;;;;;;5074633;28;20409;-87
2022/01/28 12:17:23;;;;;;;;;;;10.50;63.10;;;;;;5070790;28;19952;-87
2022/01/28 12:20:08;;;;;;;;;;;11.00;62.60;;;;;;5074598;28;19909;-87
2022/01/28 12:22:33;;;;;;;;;;;10.70;62.40;;;;;;5074263;28;19912;-86
2022/01/28 12:24:59;;;;;;;;;;;10.90;63.40;;;;;;5073876;28;19954;-87
2022/01/28 12:27:33;;;;;;;;;;;11.00;60.50;;;;;;5071210;28;19916;-87
2022/01/28 12:30:00;;;;;;;;;;;11.00;59.70;;;;;;5072050;28;19920;-87
2022/01/28 12:32:25;;;;;;;;;;;10.90;61.50;;;;;;5065126;28;19919;-87
2022/01/28 12:34:51;;;;;;;;;;;10.90;62.60;;;;;;5062998;28;19916;-87
2022/01/28 12:37:22;;;;;;;;;;;11.10;61.10;;;;;;5059885;28;20615;-87
2022/01/28 12:39:59;;;;;;;;;;;11.30;61.90;;;;;;5074829;28;19969;-87
2022/01/28 12:42:27;;;;;;;;;;;11.20;58.90;;;;;;5066439;28;19912;-87
2022/01/28 12:44:53;;;;;;;;;;;10.90;60.00;;;;;;5067716;28;20076;-87
2022/01/28 12:47:19;;;;;;;;;;;11.30;59.20;;;;;;5067696;28;19913;-87
2022/01/28 12:49:46;;;;;;;;;;;11.10;61.70;;;;;;5074118;28;19971;-87
2022/01/28 12:52:11;;;;;;;;;;;11.40;60.70;;;;;;5068763;28;19927;-87
2022/01/28 12:54:42;;;;;;;;;;;11.60;58.60;;;;;;5068434;28;19912;-87
2022/01/28 12:57:09;;;;;;;;;;;11.90;58.90;;;;;;5071591;28;19943;-87
2022/01/28 12:59:34;;;;;;;;;;;12.20;57.40;;;;;;5070645;28;19920;-87
2022/01/28 13:02:01;;;;;;;;;;;12.60;57.20;;;;;;5067376;28;20161;-87
2022/01/28 13:04:48;;;;;;;;;;;12.80;56.00;;;;;;5069188;28;19918;-87
2022/01/28 13:09:56;;;;;;;;;;;12.90;55.20;;;;;;5067657;28;20004;-86
2022/01/28 13:12:26;;;;;;;;;;;12.40;56.40;;;;;;5069457;28;19922;-87
2022/01/28 13:14:52;;;;;;;;;;;12.10;57.10;;;;;;5068829;28;19924;-86
2022/01/28 13:17:21;;;;;;;;;;;12.00;58.40;;;;;;5068308;28;19916;-87
2022/01/28 13:19:58;;;;;;;;;;;11.70;59.20;;;;;;5070983;28;19919;-86
2022/01/28 13:22:24;;;;;;;;;;;11.90;59.30;;;;;;5064581;28;19920;-87
2022/01/28 13:24:52;;;;;;;;;;;12.10;58.10;;;;;;5060939;28;20293;-86
2022/01/28 13:27:18;;;;;;;;;;;12.20;57.80;;;;;;5065569;28;19913;-86
2022/01/28 13:29:51;;;;;;;;;;;12.20;57.70;;;;;;5064559;28;19920;-86
2022/01/28 13:32:19;;;;;;;;;;;12.70;56.10;;;;;;5069656;28;19921;-87
2022/01/28 13:34:47;;;;;;;;;;;12.80;55.20;;;;;;5069711;28;19955;-87
2022/01/28 13:37:14;;;;;;;;;;;13.30;54.70;;;;;;5068513;28;19935;-86
2022/01/28 13:39:43;;;;;;;;;;;13.60;53.20;;;;;;5067800;28;19913;-87
2022/01/28 13:42:11;;;;;;;;;;;13.50;53.50;;;;;;5070008;28;19920;-86
2022/01/28 13:44:39;;;;;;;;;;;13.40;52.90;;;;;;5065708;28;19913;-87
2022/01/28 13:47:05;;;;;;;;;;;13.30;53.60;;;;;;5069725;28;19955;-87
2022/01/28 13:49:32;;;;;;;;;;;13.50;52.80;;;;;;5066863;28;19924;-86
2022/01/28 13:52:08;;;;;;;;;;;13.40;52.90;;;;;;5070476;28;20006;-87
2022/01/28 13:54:34;;;;;;;;;;;13.40;52.50;;;;;;5066040;28;19924;-86
2022/01/28 13:57:01;;;;;;;;;;;12.70;53.10;;;;;;5068288;22;19919;-86
2022/01/28 13:59:29;;;;;;;;;;;12.70;55.90;;;;;;5040701;28;19935;-86
2022/01/28 14:01:58;;;;;;;;;;;12.70;54.80;;;;;;5048662;28;19966;-86
2022/01/28 14:04:37;;;;;;;;;;;12.80;55.10;;;;;;5046746;28;19980;-87
2022/01/28 14:07:19;;;;;;;;;;;13.30;54.60;;;;;;5037196;28;19920;-87
2022/01/28 14:09:46;;;;;;;;;;;14.20;51.60;;;;;;5031676;28;19912;-87
2022/01/28 14:12:26;;;;;;;;;;;14.60;49.60;;;;;;5029332;28;20367;-87
2022/01/28 14:14:58;;;;;;;;;;;14.90;47.90;;;;;;5026316;28;19921;-87
2022/01/28 14:17:23;;;;;;;;;;;14.60;48.40;;;;;;5028449;28;19917;-87
2022/01/28 14:19:51;;;;;;;;;;;13.80;50.40;;;;;;5030052;28;19914;-87
2022/01/28 14:22:17;;;;;;;;;;;13.40;51.70;;;;;;5034800;28;19971;-86
2022/01/28 14:24:44;;;;;;;;;;;13.00;51.70;;;;;;5034810;28;20355;-87
2022/01/28 14:27:34;;;;;;;;;;;12.80;54.30;;;;;;5022863;28;20278;-86
2022/01/28 14:30:15;;;;;;;;;;;12.60;54.90;;;;;;5032463;28;19913;-86
2022/01/28 14:32:41;;;;;;;;;;;12.90;54.60;;;;;;5031513;28;19921;-86
2022/01/28 14:35:07;;;;;;;;;;;13.10;53.80;;;;;;5025390;28;19983;-86
2022/01/28 14:37:37;;;;;;;;;;;13.30;52.90;;;;;;5012213;28;19940;-87
2022/01/28 14:40:10;;;;;;;;;;;13.60;51.30;;;;;;5026181;28;20212;-87
2022/01/28 14:42:36;;;;;;;;;;;13.80;51.60;;;;;;5034249;28;19913;-87
2022/01/28 14:45:02;;;;;;;;;;;13.90;50.50;;;;;;5037001;28;20369;-87
2022/01/28 14:47:27;;;;;;;;;;;13.70;51.70;;;;;;5037560;28;21458;-87
2022/01/28 14:49:53;;;;;;;;;;;13.90;50.80;;;;;;5031698;28;19958;-87
2022/01/28 14:52:21;;;;;;;;;;;14.30;50.70;;;;;;5032964;28;19936;-87
2022/01/28 14:54:47;;;;;;;;;;;15.00;48.20;;;;;;5023579;28;19932;-87
2022/01/28 14:57:13;;;;;;;;;;;15.00;47.00;;;;;;5032845;28;19924;-87
2022/01/28 14:59:40;;;;;;;;;;;14.60;48.10;;;;;;5029366;28;19913;-87
2022/01/28 15:02:06;;;;;;;;;;;14.60;47.70;;;;;;5037524;28;19921;-87
2022/01/28 15:04:32;;;;;;;;;;;14.40;48.40;;;;;;5033272;28;19913;-87
2022/01/28 15:06:57;;;;;;;;;;;14.00;49.60;;;;;;5017740;28;20430;-87
2022/01/28 15:09:23;;;;;;;;;;;13.90;50.70;;;;;;5035133;28;20307;-87
2022/01/28 15:11:49;;;;;;;;;;;13.90;51.20;;;;;;5035648;28;20004;-87
2022/01/28 15:14:16;;;;;;;;;;;14.00;50.90;;;;;;5033212;28;19921;-86
2022/01/28 15:16:41;;;;;;;;;;;14.20;51.00;;;;;;5029743;28;20402;-87
2022/01/28 15:19:08;;;;;;;;;;;14.10;50.70;;;;;;5034072;28;19925;-86
2022/01/28 15:21:34;;;;;;;;;;;14.20;50.30;;;;;;5035458;28;20011;-87
2022/01/28 15:24:00;;;;;;;;;;;14.10;50.10;;;;;;5031062;28;20442;-87
2022/01/28 15:26:25;;;;;;;;;;;14.00;50.50;;;;;;5031200;28;19913;-86
2022/01/28 15:36:43;;;;;;;;;;;12.50;54.40;;;;;;5029714;28;19919;-86
2022/01/28 15:39:08;;;;;;;;;;;12.20;55.50;;;;;;5030465;28;19917;-86
2022/01/28 15:41:34;;;;;;;;;;;12.10;56.00;;;;;;5040576;28;19924;-86
2022/01/28 15:43:59;;;;;;;;;;;11.90;56.60;;;;;;5032438;28;19913;-86
2022/01/28 15:46:25;;;;;;;;;;;11.50;57.60;;;;;;5032866;28;20292;-86
2022/01/28 15:48:50;;;;;;;;;;;11.20;58.70;;;;;;5031176;28;20421;-86
2022/01/28 15:51:16;;;;;;;;;;;10.90;59.90;;;;;;5034221;28;19947;-86
2022/01/28 15:53:42;;;;;;;;;;;10.80;60.60;;;;;;5032358;28;20387;-86
2022/01/28 15:56:07;;;;;;;;;;;10.60;61.30;;;;;;5040225;28;19913;-86
2022/01/28 15:58:33;;;;;;;;;;;10.50;61.40;;;;;;5031873;28;19928;-86